sensor_id;sensor_type;location;lat;lon;timestamp;pressure;altitude;pressure_sealevel;temperature;humidity
24390;BME280;12510;56.468;-3.004;2023-05-12T00:00:12;101781.25;;;15.99;100.00
24390;BME280;12510;56.468;-3.004;2023-05-12T00:02:40;101781.56;;;15.96;100.00
24390;BME280;12510;56.468;-3.004;2023-05-12T00:05:07;101781.28;;;15.89;100.00
24390;BME280;12510;56.468;-3.004;2023-05-12T00:07:34;101779.16;;;16.02;100.00
24390;BME280;12510;56.468;-3.004;2023-05-12T00:10:00;101787.41;;;16.09;100.00
24390;BME280;12510;56.468;-3.004;2023-05-12T00:12:27;101787.06;;;16.22;100.00
24390;BME280;12510;56.468;-3.004;2023-05-12T00:14:53;101792.63;;;16.29;100.00
24390;BME280;12510;56.468;-3.004;2023-05-12T00:17:20;101791.34;;;16.33;100.00
24390;BME280;12510;56.468;-3.004;2023-05-12T00:19:46;101796.91;;;16.02;100.00
24390;BME280;12510;56.468;-3.004;2023-05-12T00:22:13;101802.75;;;16.53;100.00
24390;BME280;12510;56.468;-3.004;2023-05-12T00:24:40;101794.00;;;16.42;100.00
24390;BME280;12510;56.468;-3.004;2023-05-12T00:27:06;101805.41;;;16.53;100.00
24390;BME280;12510;56.468;-3.004;2023-05-12T00:29:33;101800.13;;;16.43;100.00
24390;BME280;12510;56.468;-3.004;2023-05-12T00:31:59;101794.38;;;16.75;100.00
24390;BME280;12510;56.468;-3.004;2023-05-12T00:34:26;101801.81;;;16.44;100.00
24390;BME280;12510;56.468;-3.004;2023-05-12T00:36:53;101801.81;;;16.44;100.00
24390;BME280;12510;56.468;-3.004;2023-05-12T00:39:20;101804.34;;;16.73;100.00
24390;BME280;12510;56.468;-3.004;2023-05-12T00:41:46;101806.69;;;16.49;100.00
24390;BME280;12510;56.468;-3.004;2023-05-12T00:44:15;101808.97;;;16.44;100.00
24390;BME280;12510;56.468;-3.004;2023-05-12T00:46:43;101809.97;;;16.70;100.00
24390;BME280;12510;56.468;-3.004;2023-05-12T00:49:10;101809.19;;;16.78;100.00
24390;BME280;12510;56.468;-3.004;2023-05-12T00:51:37;101817.22;;;16.40;100.00
24390;BME280;12510;56.468;-3.004;2023-05-12T00:54:03;101815.50;;;16.49;100.00
24390;BME280;12510;56.468;-3.004;2023-05-12T00:56:30;101817.09;;;16.70;100.00
24390;BME280;12510;56.468;-3.004;2023-05-12T00:59:02;101813.50;;;16.61;100.00
24390;BME280;12510;56.468;-3.004;2023-05-12T01:01:28;101826.34;;;16.28;100.00
24390;BME280;12510;56.468;-3.004;2023-05-12T01:03:55;101815.53;;;16.39;100.00
24390;BME280;12510;56.468;-3.004;2023-05-12T01:09:09;101809.94;;;16.42;100.00
24390;BME280;12510;56.468;-3.004;2023-05-12T01:11:36;101803.47;;;16.73;100.00
24390;BME280;12510;56.468;-3.004;2023-05-12T01:14:04;101810.34;;;16.75;100.00
24390;BME280;12510;56.468;-3.004;2023-05-12T01:16:38;101808.97;;;17.53;100.00
24390;BME280;12510;56.468;-3.004;2023-05-12T01:19:08;101806.25;;;17.63;100.00
24390;BME280;12510;56.468;-3.004;2023-05-12T01:21:40;101801.03;;;17.35;100.00
24390;BME280;12510;56.468;-3.004;2023-05-12T01:24:07;101806.41;;;17.43;100.00
24390;BME280;12510;56.468;-3.004;2023-05-12T01:26:36;101796.44;;;17.28;100.00
24390;BME280;12510;56.468;-3.004;2023-05-12T01:29:03;101798.56;;;17.60;100.00
24390;BME280;12510;56.468;-3.004;2023-05-12T01:31:30;101802.06;;;17.42;100.00
24390;BME280;12510;56.468;-3.004;2023-05-12T01:33:57;101797.50;;;16.89;100.00
24390;BME280;12510;56.468;-3.004;2023-05-12T01:36:24;101802.69;;;17.00;100.00
24390;BME280;12510;56.468;-3.004;2023-05-12T01:38:51;101813.75;;;16.68;100.00
24390;BME280;12510;56.468;-3.004;2023-05-12T01:41:17;101811.66;;;16.62;100.00
24390;BME280;12510;56.468;-3.004;2023-05-12T01:43:44;101811.31;;;17.02;100.00
24390;BME280;12510;56.468;-3.004;2023-05-12T01:46:11;101815.81;;;16.74;100.00
24390;BME280;12510;56.468;-3.004;2023-05-12T01:48:39;101818.81;;;16.61;100.00
24390;BME280;12510;56.468;-3.004;2023-05-12T01:51:07;101807.84;;;17.20;100.00
24390;BME280;12510;56.468;-3.004;2023-05-12T01:53:34;101818.47;;;16.74;100.00
24390;BME280;12510;56.468;-3.004;2023-05-12T01:56:00;101803.50;;;17.01;100.00
24390;BME280;12510;56.468;-3.004;2023-05-12T01:58:27;101809.31;;;17.32;100.00
24390;BME280;12510;56.468;-3.004;2023-05-12T02:00:54;101814.34;;;17.17;100.00
24390;BME280;12510;56.468;-3.004;2023-05-12T02:03:20;101818.13;;;16.87;100.00
24390;BME280;12510;56.468;-3.004;2023-05-12T02:05:46;101813.00;;;17.03;100.00
24390;BME280;12510;56.468;-3.004;2023-05-12T02:08:13;101823.88;;;16.82;100.00
24390;BME280;12510;56.468;-3.004;2023-05-12T02:10:40;101825.78;;;16.72;100.00
24390;BME280;12510;56.468;-3.004;2023-05-12T02:13:06;101834.19;;;16.67;100.00
24390;BME280;12510;56.468;-3.004;2023-05-12T02:15:34;101830.56;;;16.31;100.00
24390;BME280;12510;56.468;-3.004;2023-05-12T02:18:01;101832.38;;;16.30;100.00
24390;BME280;12510;56.468;-3.004;2023-05-12T02:20:28;101842.34;;;16.56;100.00
24390;BME280;12510;56.468;-3.004;2023-05-12T02:22:55;101838.78;;;17.03;100.00
24390;BME280;12510;56.468;-3.004;2023-05-12T02:25:21;101835.25;;;17.12;100.00
24390;BME280;12510;56.468;-3.004;2023-05-12T02:27:48;101838.06;;;17.11;100.00
24390;BME280;12510;56.468;-3.004;2023-05-12T02:30:16;101844.66;;;16.69;100.00
24390;BME280;12510;56.468;-3.004;2023-05-12T02:32:42;101852.22;;;16.36;100.00
24390;BME280;12510;56.468;-3.004;2023-05-12T02:35:09;101855.13;;;16.42;100.00
24390;BME280;12510;56.468;-3.004;2023-05-12T02:37:37;101851.78;;;16.40;100.00
24390;BME280;12510;56.468;-3.004;2023-05-12T02:40:05;101852.22;;;16.36;100.00
24390;BME280;12510;56.468;-3.004;2023-05-12T02:42:31;101847.69;;;16.56;100.00
24390;BME280;12510;56.468;-3.004;2023-05-12T02:45:00;101858.97;;;16.20;100.00
24390;BME280;12510;56.468;-3.004;2023-05-12T02:47:28;101853.75;;;16.38;100.00
24390;BME280;12510;56.468;-3.004;2023-05-12T02:49:58;101853.56;;;16.50;100.00
24390;BME280;12510;56.468;-3.004;2023-05-12T02:52:24;101863.16;;;16.23;100.00
24390;BME280;12510;56.468;-3.004;2023-05-12T02:54:50;101863.44;;;16.20;100.00
24390;BME280;12510;56.468;-3.004;2023-05-12T02:57:17;101861.78;;;16.09;100.00
24390;BME280;12510;56.468;-3.004;2023-05-12T02:59:43;101864.44;;;15.99;100.00
24390;BME280;12510;56.468;-3.004;2023-05-12T03:02:10;101874.16;;;16.38;100.00
24390;BME280;12510;56.468;-3.004;2023-05-12T03:04:36;101871.44;;;16.20;100.00
24390;BME280;12510;56.468;-3.004;2023-05-12T03:07:04;101877.50;;;16.50;100.00
24390;BME280;12510;56.468;-3.004;2023-05-12T03:09:34;101884.38;;;16.42;100.00
24390;BME280;12510;56.468;-3.004;2023-05-12T03:12:01;101886.19;;;16.52;100.00
24390;BME280;12510;56.468;-3.004;2023-05-12T03:14:28;101880.53;;;16.65;100.00
24390;BME280;12510;56.468;-3.004;2023-05-12T03:16:54;101886.06;;;16.81;100.00
24390;BME280;12510;56.468;-3.004;2023-05-12T03:19:21;101894.94;;;16.72;100.00
24390;BME280;12510;56.468;-3.004;2023-05-12T03:21:47;101880.63;;;16.73;100.00
24390;BME280;12510;56.468;-3.004;2023-05-12T03:24:13;101892.69;;;16.77;100.00
24390;BME280;12510;56.468;-3.004;2023-05-12T03:26:41;101889.72;;;16.80;100.00
24390;BME280;12510;56.468;-3.004;2023-05-12T03:29:07;101897.03;;;17.06;100.00
24390;BME280;12510;56.468;-3.004;2023-05-12T03:31:34;101889.78;;;17.26;100.00
24390;BME280;12510;56.468;-3.004;2023-05-12T03:34:00;101895.75;;;17.10;100.00
24390;BME280;12510;56.468;-3.004;2023-05-12T03:36:27;101902.13;;;16.99;100.00
24390;BME280;12510;56.468;-3.004;2023-05-12T03:38:53;101895.44;;;16.85;100.00
24390;BME280;12510;56.468;-3.004;2023-05-12T03:41:20;101894.84;;;17.01;100.00
24390;BME280;12510;56.468;-3.004;2023-05-12T03:43:47;101906.00;;;17.05;100.00
24390;BME280;12510;56.468;-3.004;2023-05-12T03:46:13;101908.13;;;17.01;100.00
24390;BME280;12510;56.468;-3.004;2023-05-12T03:48:40;101906.41;;;16.72;100.00
24390;BME280;12510;56.468;-3.004;2023-05-12T03:51:06;101906.66;;;16.79;100.00
24390;BME280;12510;56.468;-3.004;2023-05-12T03:53:33;101897.94;;;16.87;100.00
24390;BME280;12510;56.468;-3.004;2023-05-12T03:56:03;101907.22;;;16.73;100.00
24390;BME280;12510;56.468;-3.004;2023-05-12T03:58:32;101908.78;;;16.66;100.00
24390;BME280;12510;56.468;-3.004;2023-05-12T04:00:58;101912.78;;;16.80;100.00
24390;BME280;12510;56.468;-3.004;2023-05-12T04:03:29;101912.19;;;17.05;100.00
24390;BME280;12510;56.468;-3.004;2023-05-12T04:05:57;101911.22;;;17.24;100.00
24390;BME280;12510;56.468;-3.004;2023-05-12T04:08:25;101914.59;;;16.99;100.00
24390;BME280;12510;56.468;-3.004;2023-05-12T04:10:54;101914.38;;;17.10;100.00
24390;BME280;12510;56.468;-3.004;2023-05-12T04:13:21;101916.38;;;17.08;100.00
24390;BME280;12510;56.468;-3.004;2023-05-12T04:15:47;101918.06;;;16.99;100.00
24390;BME280;12510;56.468;-3.004;2023-05-12T04:18:15;101924.97;;;17.20;100.00
24390;BME280;12510;56.468;-3.004;2023-05-12T04:20:42;101927.75;;;17.00;100.00
24390;BME280;12510;56.468;-3.004;2023-05-12T04:23:08;101929.78;;;17.16;100.00
24390;BME280;12510;56.468;-3.004;2023-05-12T04:25:38;101935.25;;;17.15;100.00
24390;BME280;12510;56.468;-3.004;2023-05-12T04:28:06;101937.31;;;17.21;100.00
24390;BME280;12510;56.468;-3.004;2023-05-12T04:30:32;101938.97;;;17.22;100.00
24390;BME280;12510;56.468;-3.004;2023-05-12T04:32:59;101936.59;;;16.91;100.00
24390;BME280;12510;56.468;-3.004;2023-05-12T04:35:27;101943.03;;;16.88;100.00
24390;BME280;12510;56.468;-3.004;2023-05-12T04:37:54;101946.97;;;16.84;100.00
24390;BME280;12510;56.468;-3.004;2023-05-12T04:40:21;101940.94;;;17.20;100.00
24390;BME280;12510;56.468;-3.004;2023-05-12T04:42:47;101947.94;;;17.21;100.00
24390;BME280;12510;56.468;-3.004;2023-05-12T04:45:15;101949.06;;;17.18;100.00
24390;BME280;12510;56.468;-3.004;2023-05-12T04:47:41;101951.56;;;17.30;100.00
24390;BME280;12510;56.468;-3.004;2023-05-12T04:50:08;101954.75;;;17.05;100.00
24390;BME280;12510;56.468;-3.004;2023-05-12T04:52:36;101955.91;;;17.31;100.00
24390;BME280;12510;56.468;-3.004;2023-05-12T04:55:03;101955.44;;;17.35;100.00
24390;BME280;12510;56.468;-3.004;2023-05-12T04:57:30;101958.44;;;17.50;100.00
24390;BME280;12510;56.468;-3.004;2023-05-12T04:59:57;101957.19;;;17.72;100.00
24390;BME280;12510;56.468;-3.004;2023-05-12T05:02:25;101953.75;;;17.62;100.00
24390;BME280;12510;56.468;-3.004;2023-05-12T05:04:52;101950.75;;;17.47;100.00
24390;BME280;12510;56.468;-3.004;2023-05-12T05:07:20;101954.72;;;17.61;100.00
24390;BME280;12510;56.468;-3.004;2023-05-12T05:09:47;101948.50;;;17.24;100.00
24390;BME280;12510;56.468;-3.004;2023-05-12T05:12:13;101956.53;;;17.15;100.00
24390;BME280;12510;56.468;-3.004;2023-05-12T05:14:39;101956.72;;;17.59;100.00
24390;BME280;12510;56.468;-3.004;2023-05-12T05:17:06;101972.22;;;17.64;100.00
24390;BME280;12510;56.468;-3.004;2023-05-12T05:19:34;101977.13;;;17.68;100.00
24390;BME280;12510;56.468;-3.004;2023-05-12T05:22:00;101980.44;;;17.24;100.00
24390;BME280;12510;56.468;-3.004;2023-05-12T05:24:27;101984.44;;;17.11;100.00
24390;BME280;12510;56.468;-3.004;2023-05-12T05:26:54;101979.97;;;17.29;100.00
24390;BME280;12510;56.468;-3.004;2023-05-12T05:29:20;101984.41;;;17.48;100.00
24390;BME280;12510;56.468;-3.004;2023-05-12T05:31:46;101984.44;;;17.38;100.00
24390;BME280;12510;56.468;-3.004;2023-05-12T05:34:13;102000.59;;;17.27;100.00
24390;BME280;12510;56.468;-3.004;2023-05-12T05:36:40;102006.63;;;17.57;100.00
24390;BME280;12510;56.468;-3.004;2023-05-12T05:39:06;102012.53;;;17.23;100.00
24390;BME280;12510;56.468;-3.004;2023-05-12T05:41:35;102014.97;;;17.44;100.00
24390;BME280;12510;56.468;-3.004;2023-05-12T05:44:02;102014.41;;;17.68;100.00
24390;BME280;12510;56.468;-3.004;2023-05-12T05:46:29;102017.22;;;17.67;100.00
24390;BME280;12510;56.468;-3.004;2023-05-12T05:48:55;102025.34;;;17.65;100.00
24390;BME280;12510;56.468;-3.004;2023-05-12T05:51:22;102029.69;;;17.66;100.00
24390;BME280;12510;56.468;-3.004;2023-05-12T05:53:49;102033.31;;;17.09;100.00
24390;BME280;12510;56.468;-3.004;2023-05-12T05:56:16;102027.44;;;17.43;100.00
24390;BME280;12510;56.468;-3.004;2023-05-12T05:58:43;102039.56;;;17.56;100.00
24390;BME280;12510;56.468;-3.004;2023-05-12T06:01:09;102042.94;;;17.58;100.00
24390;BME280;12510;56.468;-3.004;2023-05-12T06:03:36;102035.41;;;17.71;100.00
24390;BME280;12510;56.468;-3.004;2023-05-12T06:06:03;102037.84;;;17.65;100.00
24390;BME280;12510;56.468;-3.004;2023-05-12T06:08:30;102044.78;;;17.75;100.00
24390;BME280;12510;56.468;-3.004;2023-05-12T06:10:56;102048.69;;;17.53;100.00
24390;BME280;12510;56.468;-3.004;2023-05-12T06:13:23;102039.56;;;17.84;100.00
24390;BME280;12510;56.468;-3.004;2023-05-12T06:15:49;102043.06;;;17.84;100.00
24390;BME280;12510;56.468;-3.004;2023-05-12T06:18:16;102042.53;;;17.81;100.00
24390;BME280;12510;56.468;-3.004;2023-05-12T06:20:42;102033.31;;;17.75;100.00
24390;BME280;12510;56.468;-3.004;2023-05-12T06:23:08;102039.06;;;17.98;100.00
24390;BME280;12510;56.468;-3.004;2023-05-12T06:25:35;102044.56;;;17.87;100.00
24390;BME280;12510;56.468;-3.004;2023-05-12T06:28:02;102040.94;;;17.88;100.00
24390;BME280;12510;56.468;-3.004;2023-05-12T06:30:28;102048.25;;;17.58;100.00
24390;BME280;12510;56.468;-3.004;2023-05-12T06:32:55;102050.03;;;17.67;100.00
24390;BME280;12510;56.468;-3.004;2023-05-12T06:35:21;102048.19;;;17.40;100.00
24390;BME280;12510;56.468;-3.004;2023-05-12T06:37:48;102043.75;;;17.86;100.00
24390;BME280;12510;56.468;-3.004;2023-05-12T06:40:16;102051.31;;;17.63;100.00
24390;BME280;12510;56.468;-3.004;2023-05-12T06:42:42;102054.06;;;17.43;100.00
24390;BME280;12510;56.468;-3.004;2023-05-12T06:45:09;102055.66;;;17.64;100.00
24390;BME280;12510;56.468;-3.004;2023-05-12T06:47:38;102049.00;;;18.06;100.00
24390;BME280;12510;56.468;-3.004;2023-05-12T06:50:06;102050.81;;;17.78;100.00
24390;BME280;12510;56.468;-3.004;2023-05-12T06:52:34;102052.44;;;17.61;100.00
24390;BME280;12510;56.468;-3.004;2023-05-12T06:55:00;102057.38;;;17.55;100.00
24390;BME280;12510;56.468;-3.004;2023-05-12T06:57:27;102055.59;;;17.74;100.00
24390;BME280;12510;56.468;-3.004;2023-05-12T06:59:53;102057.69;;;17.52;100.00
24390;BME280;12510;56.468;-3.004;2023-05-12T07:02:20;102057.31;;;17.65;100.00
24390;BME280;12510;56.468;-3.004;2023-05-12T07:04:46;102051.00;;;17.66;100.00
24390;BME280;12510;56.468;-3.004;2023-05-12T07:07:12;102042.75;;;17.87;100.00
24390;BME280;12510;56.468;-3.004;2023-05-12T07:09:39;102048.91;;;17.98;100.00
24390;BME280;12510;56.468;-3.004;2023-05-12T07:12:07;102052.47;;;17.79;100.00
24390;BME280;12510;56.468;-3.004;2023-05-12T07:14:34;102058.31;;;17.92;100.00
24390;BME280;12510;56.468;-3.004;2023-05-12T07:17:00;102059.06;;;17.84;100.00
24390;BME280;12510;56.468;-3.004;2023-05-12T07:19:27;102056.91;;;17.88;100.00
24390;BME280;12510;56.468;-3.004;2023-05-12T07:21:53;102054.38;;;18.32;100.00
24390;BME280;12510;56.468;-3.004;2023-05-12T07:24:20;102064.59;;;18.19;100.00
24390;BME280;12510;56.468;-3.004;2023-05-12T07:26:46;102066.63;;;18.07;100.00
24390;BME280;12510;56.468;-3.004;2023-05-12T07:29:13;102068.16;;;18.09;100.00
24390;BME280;12510;56.468;-3.004;2023-05-12T07:31:39;102067.50;;;18.25;100.00
24390;BME280;12510;56.468;-3.004;2023-05-12T07:34:06;102065.88;;;17.97;100.00
24390;BME280;12510;56.468;-3.004;2023-05-12T07:36:32;102074.09;;;17.75;100.00
24390;BME280;12510;56.468;-3.004;2023-05-12T07:38:59;102079.91;;;17.61;100.00
24390;BME280;12510;56.468;-3.004;2023-05-12T07:41:25;102088.53;;;16.88;100.00
24390;BME280;12510;56.468;-3.004;2023-05-12T07:43:52;102086.03;;;16.37;100.00
24390;BME280;12510;56.468;-3.004;2023-05-12T07:46:18;102082.06;;;16.81;100.00
24390;BME280;12510;56.468;-3.004;2023-05-12T07:48:45;102082.75;;;17.02;100.00
24390;BME280;12510;56.468;-3.004;2023-05-12T07:51:11;102085.75;;;16.60;100.00
24390;BME280;12510;56.468;-3.004;2023-05-12T07:53:37;102084.75;;;16.81;100.00
24390;BME280;12510;56.468;-3.004;2023-05-12T07:56:04;102085.03;;;16.78;100.00
24390;BME280;12510;56.468;-3.004;2023-05-12T07:58:32;102091.75;;;16.82;100.00
24390;BME280;12510;56.468;-3.004;2023-05-12T08:00:58;102088.88;;;17.22;100.00
24390;BME280;12510;56.468;-3.004;2023-05-12T08:03:26;102100.72;;;16.61;100.00
24390;BME280;12510;56.468;-3.004;2023-05-12T08:05:52;102089.03;;;17.31;100.00
24390;BME280;12510;56.468;-3.004;2023-05-12T08:08:19;102101.66;;;17.19;100.00
24390;BME280;12510;56.468;-3.004;2023-05-12T08:10:45;102085.19;;;17.43;100.00
24390;BME280;12510;56.468;-3.004;2023-05-12T08:13:11;102095.06;;;17.13;100.00
24390;BME280;12510;56.468;-3.004;2023-05-12T08:15:38;102090.34;;;16.78;100.00
24390;BME280;12510;56.468;-3.004;2023-05-12T08:18:04;102083.88;;;17.09;100.00
24390;BME280;12510;56.468;-3.004;2023-05-12T08:20:31;102089.63;;;16.75;100.00
24390;BME280;12510;56.468;-3.004;2023-05-12T08:22:57;102092.59;;;16.33;100.00
24390;BME280;12510;56.468;-3.004;2023-05-12T08:25:24;102087.53;;;16.89;100.00
24390;BME280;12510;56.468;-3.004;2023-05-12T08:27:52;102088.09;;;16.83;100.00
24390;BME280;12510;56.468;-3.004;2023-05-12T08:30:19;102096.53;;;16.98;100.00
24390;BME280;12510;56.468;-3.004;2023-05-12T08:32:45;102099.31;;;16.67;100.00
24390;BME280;12510;56.468;-3.004;2023-05-12T08:35:12;102083.50;;;17.42;100.00
24390;BME280;12510;56.468;-3.004;2023-05-12T08:37:38;102095.75;;;17.25;100.00
24390;BME280;12510;56.468;-3.004;2023-05-12T08:40:17;102098.41;;;17.25;100.00
24390;BME280;12510;56.468;-3.004;2023-05-12T08:43:08;102094.38;;;17.58;100.00
24390;BME280;12510;56.468;-3.004;2023-05-12T08:45:37;102091.94;;;17.37;100.00
24390;BME280;12510;56.468;-3.004;2023-05-12T08:48:05;102094.75;;;17.26;100.00
24390;BME280;12510;56.468;-3.004;2023-05-12T08:50:37;102103.19;;;17.21;100.00
24390;BME280;12510;56.468;-3.004;2023-05-12T08:53:06;102101.47;;;17.30;100.00
24390;BME280;12510;56.468;-3.004;2023-05-12T08:55:38;102112.50;;;17.45;100.00
24390;BME280;12510;56.468;-3.004;2023-05-12T08:58:07;102100.72;;;17.48;100.00
24390;BME280;12510;56.468;-3.004;2023-05-12T09:00:34;102112.66;;;17.43;100.00
24390;BME280;12510;56.468;-3.004;2023-05-12T09:03:04;102105.09;;;17.39;100.00
24390;BME280;12510;56.468;-3.004;2023-05-12T09:05:33;102110.22;;;16.93;100.00
24390;BME280;12510;56.468;-3.004;2023-05-12T09:08:00;102105.22;;;17.47;100.00
24390;BME280;12510;56.468;-3.004;2023-05-12T09:10:27;102106.56;;;17.14;100.00
24390;BME280;12510;56.468;-3.004;2023-05-12T09:12:54;102107.44;;;17.04;100.00
24390;BME280;12510;56.468;-3.004;2023-05-12T09:15:32;102100.72;;;17.48;100.00
24390;BME280;12510;56.468;-3.004;2023-05-12T09:17:59;102109.38;;;17.59;100.00
24390;BME280;12510;56.468;-3.004;2023-05-12T09:20:26;102111.41;;;17.38;100.00
24390;BME280;12510;56.468;-3.004;2023-05-12T09:22:53;102116.63;;;17.20;100.00
24390;BME280;12510;56.468;-3.004;2023-05-12T09:25:21;102109.47;;;18.23;100.00
24390;BME280;12510;56.468;-3.004;2023-05-12T09:27:52;102119.41;;;17.38;100.00
24390;BME280;12510;56.468;-3.004;2023-05-12T09:30:31;102110.03;;;17.71;100.00
24390;BME280;12510;56.468;-3.004;2023-05-12T09:33:07;102125.78;;;16.98;100.00
24390;BME280;12510;56.468;-3.004;2023-05-12T09:35:40;102109.41;;;17.50;100.00
24390;BME280;12510;56.468;-3.004;2023-05-12T09:38:08;102113.41;;;17.64;100.00
24390;BME280;12510;56.468;-3.004;2023-05-12T09:40:35;102111.06;;;17.88;100.00
24390;BME280;12510;56.468;-3.004;2023-05-12T09:43:05;102121.00;;;17.58;100.00
24390;BME280;12510;56.468;-3.004;2023-05-12T09:45:34;102123.91;;;17.65;100.00
24390;BME280;12510;56.468;-3.004;2023-05-12T09:48:08;102123.25;;;17.63;100.00
24390;BME280;12510;56.468;-3.004;2023-05-12T09:50:46;102125.34;;;17.59;100.00
24390;BME280;12510;56.468;-3.004;2023-05-12T09:53:14;102132.41;;;17.51;100.00
24390;BME280;12510;56.468;-3.004;2023-05-12T09:55:46;102129.06;;;17.76;100.00
24390;BME280;12510;56.468;-3.004;2023-05-12T09:58:15;102133.16;;;17.71;100.00
24390;BME280;12510;56.468;-3.004;2023-05-12T10:00:43;102140.13;;;17.44;100.00
24390;BME280;12510;56.468;-3.004;2023-05-12T10:03:14;102136.44;;;17.55;100.00
24390;BME280;12510;56.468;-3.004;2023-05-12T10:05:56;102131.25;;;17.91;100.00
24390;BME280;12510;56.468;-3.004;2023-05-12T10:08:34;102139.38;;;17.62;100.00
24390;BME280;12510;56.468;-3.004;2023-05-12T10:11:04;102145.56;;;17.42;100.00
24390;BME280;12510;56.468;-3.004;2023-05-12T10:13:32;102137.63;;;17.70;100.00
24390;BME280;12510;56.468;-3.004;2023-05-12T10:15:59;102157.88;;;17.53;100.00
24390;BME280;12510;56.468;-3.004;2023-05-12T10:18:26;102142.91;;;17.90;100.00
24390;BME280;12510;56.468;-3.004;2023-05-12T10:20:55;102153.41;;;17.54;100.00
24390;BME280;12510;56.468;-3.004;2023-05-12T10:23:22;102150.16;;;17.60;100.00
24390;BME280;12510;56.468;-3.004;2023-05-12T10:25:52;102157.91;;;17.43;100.00
24390;BME280;12510;56.468;-3.004;2023-05-12T10:28:19;102152.78;;;18.07;100.00
24390;BME280;12510;56.468;-3.004;2023-05-12T10:30:46;102155.88;;;18.03;100.00
24390;BME280;12510;56.468;-3.004;2023-05-12T10:33:13;102156.47;;;17.59;100.00
24390;BME280;12510;56.468;-3.004;2023-05-12T10:35:42;102146.75;;;18.05;100.00
24390;BME280;12510;56.468;-3.004;2023-05-12T10:38:10;102159.03;;;17.51;100.00
24390;BME280;12510;56.468;-3.004;2023-05-12T10:40:50;102153.53;;;18.00;100.00
24390;BME280;12510;56.468;-3.004;2023-05-12T10:43:20;102150.97;;;18.08;100.00
24390;BME280;12510;56.468;-3.004;2023-05-12T10:46:13;102158.28;;;17.68;100.00
24390;BME280;12510;56.468;-3.004;2023-05-12T10:51:27;102168.97;;;17.49;100.00
24390;BME280;12510;56.468;-3.004;2023-05-12T10:54:03;102162.75;;;17.11;100.00
24390;BME280;12510;56.468;-3.004;2023-05-12T10:59:06;102159.47;;;17.84;100.00
24390;BME280;12510;56.468;-3.004;2023-05-12T11:01:34;102148.19;;;18.46;100.00
24390;BME280;12510;56.468;-3.004;2023-05-12T11:04:16;102166.06;;;18.17;100.00
24390;BME280;12510;56.468;-3.004;2023-05-12T11:06:44;102154.50;;;17.99;100.00
24390;BME280;12510;56.468;-3.004;2023-05-12T11:09:11;102159.41;;;18.31;100.00
24390;BME280;12510;56.468;-3.004;2023-05-12T11:11:37;102167.91;;;17.79;100.00
24390;BME280;12510;56.468;-3.004;2023-05-12T11:14:04;102166.22;;;17.78;100.00
24390;BME280;12510;56.468;-3.004;2023-05-12T11:16:30;102170.59;;;17.69;100.00
24390;BME280;12510;56.468;-3.004;2023-05-12T11:19:01;102157.66;;;18.12;100.00
24390;BME280;12510;56.468;-3.004;2023-05-12T11:21:29;102166.59;;;18.21;100.00
24390;BME280;12510;56.468;-3.004;2023-05-12T11:23:57;102158.03;;;18.63;100.00
24390;BME280;12510;56.468;-3.004;2023-05-12T11:26:26;102156.97;;;18.56;100.00
24390;BME280;12510;56.468;-3.004;2023-05-12T11:28:55;102154.63;;;18.53;100.00
24390;BME280;12510;56.468;-3.004;2023-05-12T11:31:21;102164.25;;;18.18;100.00
24390;BME280;12510;56.468;-3.004;2023-05-12T11:33:48;102164.53;;;18.61;100.00
24390;BME280;12510;56.468;-3.004;2023-05-12T11:36:16;102160.63;;;18.73;100.00
24390;BME280;12510;56.468;-3.004;2023-05-12T11:38:50;102167.47;;;18.39;100.00
24390;BME280;12510;56.468;-3.004;2023-05-12T11:41:23;102171.44;;;18.35;100.00
24390;BME280;12510;56.468;-3.004;2023-05-12T11:43:51;102164.03;;;18.29;100.00
24390;BME280;12510;56.468;-3.004;2023-05-12T11:46:28;102162.31;;;18.92;100.00
24390;BME280;12510;56.468;-3.004;2023-05-12T11:48:58;102150.56;;;18.67;100.00
24390;BME280;12510;56.468;-3.004;2023-05-12T11:51:26;102155.66;;;18.60;100.00
24390;BME280;12510;56.468;-3.004;2023-05-12T11:53:52;102154.44;;;19.08;100.00
24390;BME280;12510;56.468;-3.004;2023-05-12T11:56:22;102151.72;;;19.00;100.00
24390;BME280;12510;56.468;-3.004;2023-05-12T11:58:56;102152.84;;;19.16;100.00
24390;BME280;12510;56.468;-3.004;2023-05-12T12:01:24;102168.00;;;18.43;100.00
24390;BME280;12510;56.468;-3.004;2023-05-12T12:03:53;102162.59;;;18.71;100.00
24390;BME280;12510;56.468;-3.004;2023-05-12T12:06:21;102162.75;;;18.69;100.00
24390;BME280;12510;56.468;-3.004;2023-05-12T12:08:58;102165.03;;;18.64;100.00
24390;BME280;12510;56.468;-3.004;2023-05-12T12:11:27;102160.78;;;19.34;100.00
24390;BME280;12510;56.468;-3.004;2023-05-12T12:13:55;102153.63;;;19.08;100.00
24390;BME280;12510;56.468;-3.004;2023-05-12T12:16:26;102160.56;;;19.01;100.00
24390;BME280;12510;56.468;-3.004;2023-05-12T12:18:53;102160.63;;;19.35;100.00
24390;BME280;12510;56.468;-3.004;2023-05-12T12:21:19;102160.75;;;19.52;100.00
24390;BME280;12510;56.468;-3.004;2023-05-12T12:23:49;102157.59;;;19.83;100.00
24390;BME280;12510;56.468;-3.004;2023-05-12T12:26:16;102159.34;;;19.74;100.00
24390;BME280;12510;56.468;-3.004;2023-05-12T12:28:46;102147.75;;;19.91;100.00
24390;BME280;12510;56.468;-3.004;2023-05-12T12:31:13;102160.31;;;19.91;100.00
24390;BME280;12510;56.468;-3.004;2023-05-12T12:33:40;102149.84;;;20.14;100.00
24390;BME280;12510;56.468;-3.004;2023-05-12T12:36:06;102156.97;;;19.97;100.00
24390;BME280;12510;56.468;-3.004;2023-05-12T12:38:33;102161.91;;;20.26;100.00
24390;BME280;12510;56.468;-3.004;2023-05-12T12:40:59;102155.66;;;19.40;100.00